Stolt Shearwater — ZCRD9 — position and weather

sailwx.info

Track history (hours):
 
Tides and Currents Weather Stations Pressure Air Temp Water Temp Dewpoint Dewpoint Depression Visibility Wind Speed Wind Dir Waves Ship Positions

Stolt Shearwater

Last reported at 2017-Jan-22 05:29 UTC. Time now 2017-Jan-22 05:51 UTC.
Position N 51°56' E 003°44'.

Length 96 m; draft 5.6 m.

Type: Ship (hazmat cat B). MMSI: 319402000.

Date/timePositionNaut miles runAvg speedWind from/ knotsBaromVisibWave heightAir tempDewpointWater temp
2017-Jan-22 05:29N 51°56' E 003°44'0 0.0
2017-Jan-22 04:32N 51°56' E 003°44'0 0.0
2017-Jan-22 03:32N 51°56' E 003°44'0 0.0
2017-Jan-22 02:32N 51°56' E 003°44'0 0.1
2017-Jan-22 01:25N 51°56' E 003°44'0 0.0
2017-Jan-22 00:29N 51°56' E 003°44'0 0.0
2017-Jan-21 23:32N 51°56' E 003°44'0 0.0
2017-Jan-21 22:26N 51°56' E 003°44'0 0.0
2017-Jan-21 21:32N 51°56' E 003°44'0 0.0
2017-Jan-21 20:32N 51°56' E 003°44'0 0.0
2017-Jan-21 19:29N 51°56' E 003°44'0 0.1
2017-Jan-21 18:32N 51°56' E 003°44'0 0.0
2017-Jan-21 17:32N 51°56' E 003°44'0 0.0
2017-Jan-21 16:31N 51°56' E 003°44'0 0.0
2017-Jan-21 15:31N 51°56' E 003°44'0 0.0
2017-Jan-21 14:31N 51°56' E 003°44'0 0.0
2017-Jan-21 13:32N 51°56' E 003°44'0 0.1
2017-Jan-21 12:32N 51°56' E 003°44'0 0.0
2017-Jan-21 11:26N 51°56' E 003°44'0 0.0
2017-Jan-21 10:31N 51°56' E 003°44'0 0.0
2017-Jan-21 09:23N 51°56' E 003°44'0 0.0
2017-Jan-21 08:32N 51°56' E 003°44'0 0.1
2017-Jan-21 07:20N 51°56' E 003°44'0 0.1
2017-Jan-21 06:33N 51°56' E 003°44'0 0.0
2017-Jan-21 05:33N 51°56' E 003°44'0 0.1
2017-Jan-21 04:33N 51°56' E 003°44'7 6.9
2017-Jan-21 03:32N 51°56' E 003°33'8 8.6
2017-Jan-21 02:33N 51°54' E 003°20'9 8.6
2017-Jan-21 01:33N 51°52' E 003°06'27 8.7
2017-Jan-20 22:27N 51°39' E 002°28'9 9.6
2017-Jan-20 21:33N 51°32' E 002°19'10 9.9
2017-Jan-20 20:33N 51°24' E 002°11'1010.2
2017-Jan-20 19:33N 51°15' E 002°04'1110.8
2017-Jan-20 18:33N 51°09' E 001°49'1111.2
2017-Jan-20 17:33N 51°00' E 001°38'69 9.8
2017-Jan-20 10:30N 50°21' E 000°09'9 8.8
2017-Jan-20 09:30N 50°19' W 000°05'34 8.2
2017-Jan-20 05:18N 50°10' W 000°57'7 8.9
2017-Jan-20 04:33N 50°08' W 001°07'10 9.9
2017-Jan-20 03:33N 50°05' W 001°21'1110.7
2017-Jan-20 02:33N 50°02' W 001°37'1111.3
2017-Jan-20 01:33N 49°60' W 001°55'49 9.4
2017-Jan-19 20:19N 49°44' W 003°07'8 7.4
2017-Jan-19 19:14N 49°40' W 003°18'84 8.6
2017-Jan-19 09:33N 48°58' W 005°09'1110.3
2017-Jan-19 08:27N 48°52' W 005°23'1010.9
2017-Jan-19 07:33N 48°46' W 005°36'3210.8
2017-Jan-19 04:33N 48°14' W 005°33'1211.8
2017-Jan-19 03:33N 48°03' W 005°27'1211.6
2017-Jan-19 02:33N 47°52' W 005°21'  
2017-Jan-14 21:30N 46°55' W 002°41'8 0.2
2017-Jan-13 10:30N 47°01' W 002°33'3 3.3
2017-Jan-13 09:33N 46°60' W 002°37'4 3.4
2017-Jan-13 08:27N 46°58' W 002°42'5 5.5
2017-Jan-13 07:33N 47°01' W 002°48'1010.1
2017-Jan-13 06:33N 47°05' W 003°02'1010.4
2017-Jan-13 05:33N 47°08' W 003°16'1110.7
2017-Jan-13 04:33N 47°13' W 003°30'1110.8
2017-Jan-13 03:33N 47°18' W 003°44'5210.5
2017-Jan-12 22:33N 47°45' W 004°51'1010.3
2017-Jan-12 21:34N 47°50' W 005°04'1110.7
2017-Jan-12 20:33N 47°57' W 005°16'1111.3
2017-Jan-12 19:33N 48°06' W 005°26'1211.5
2017-Jan-12 18:33N 48°16' W 005°35'  
Track history (hours):
 
Tides and Currents Weather Stations Pressure Air Temp Water Temp Dewpoint Dewpoint Depression Visibility Wind Speed Wind Dir Waves Ship Positions

Stolt Shearwater

Last reported at 2017-Jan-22 05:29 UTC. Time now 2017-Jan-22 05:51 UTC.
Position N 51°56' E 003°44'.

Length 96 m; draft 5.6 m.

Type: Ship (hazmat cat B). MMSI: 319402000.

Date/timePositionNaut miles runAvg speedWind from/ knotsBaromVisibWave heightAir tempDewpointWater temp
2017-Jan-22 05:29N 51°56' E 003°44'0 0.0
2017-Jan-22 04:32N 51°56' E 003°44'0 0.0
2017-Jan-22 03:32N 51°56' E 003°44'0 0.0
2017-Jan-22 02:32N 51°56' E 003°44'0 0.1
2017-Jan-22 01:25N 51°56' E 003°44'0 0.0
2017-Jan-22 00:29N 51°56' E 003°44'0 0.0
2017-Jan-21 23:32N 51°56' E 003°44'0 0.0
2017-Jan-21 22:26N 51°56' E 003°44'0 0.0
2017-Jan-21 21:32N 51°56' E 003°44'0 0.0
2017-Jan-21 20:32N 51°56' E 003°44'0 0.0
2017-Jan-21 19:29N 51°56' E 003°44'0 0.1
2017-Jan-21 18:32N 51°56' E 003°44'0 0.0
2017-Jan-21 17:32N 51°56' E 003°44'0 0.0
2017-Jan-21 16:31N 51°56' E 003°44'0 0.0
2017-Jan-21 15:31N 51°56' E 003°44'0 0.0
2017-Jan-21 14:31N 51°56' E 003°44'0 0.0
2017-Jan-21 13:32N 51°56' E 003°44'0 0.1
2017-Jan-21 12:32N 51°56' E 003°44'0 0.0
2017-Jan-21 11:26N 51°56' E 003°44'0 0.0
2017-Jan-21 10:31N 51°56' E 003°44'0 0.0
2017-Jan-21 09:23N 51°56' E 003°44'0 0.0
2017-Jan-21 08:32N 51°56' E 003°44'0 0.1
2017-Jan-21 07:20N 51°56' E 003°44'0 0.1
2017-Jan-21 06:33N 51°56' E 003°44'0 0.0
2017-Jan-21 05:33N 51°56' E 003°44'0 0.1
2017-Jan-21 04:33N 51°56' E 003°44'7 6.9
2017-Jan-21 03:32N 51°56' E 003°33'8 8.6
2017-Jan-21 02:33N 51°54' E 003°20'9 8.6
2017-Jan-21 01:33N 51°52' E 003°06'27 8.7
2017-Jan-20 22:27N 51°39' E 002°28'9 9.6
2017-Jan-20 21:33N 51°32' E 002°19'10 9.9
2017-Jan-20 20:33N 51°24' E 002°11'1010.2
2017-Jan-20 19:33N 51°15' E 002°04'1110.8
2017-Jan-20 18:33N 51°09' E 001°49'1111.2
2017-Jan-20 17:33N 51°00' E 001°38'69 9.8
2017-Jan-20 10:30N 50°21' E 000°09'9 8.8
2017-Jan-20 09:30N 50°19' W 000°05'34 8.2
2017-Jan-20 05:18N 50°10' W 000°57'7 8.9
2017-Jan-20 04:33N 50°08' W 001°07'10 9.9
2017-Jan-20 03:33N 50°05' W 001°21'1110.7
2017-Jan-20 02:33N 50°02' W 001°37'1111.3
2017-Jan-20 01:33N 49°60' W 001°55'49 9.4
2017-Jan-19 20:19N 49°44' W 003°07'8 7.4
2017-Jan-19 19:14N 49°40' W 003°18'84 8.6
2017-Jan-19 09:33N 48°58' W 005°09'1110.3
2017-Jan-19 08:27N 48°52' W 005°23'1010.9
2017-Jan-19 07:33N 48°46' W 005°36'3210.8
2017-Jan-19 04:33N 48°14' W 005°33'1211.8
2017-Jan-19 03:33N 48°03' W 005°27'1211.6
2017-Jan-19 02:33N 47°52' W 005°21'  
2017-Jan-14 21:30N 46°55' W 002°41'8 0.2
2017-Jan-13 10:30N 47°01' W 002°33'3 3.3
2017-Jan-13 09:33N 46°60' W 002°37'4 3.4
2017-Jan-13 08:27N 46°58' W 002°42'5 5.5
2017-Jan-13 07:33N 47°01' W 002°48'1010.1
2017-Jan-13 06:33N 47°05' W 003°02'1010.4
2017-Jan-13 05:33N 47°08' W 003°16'1110.7
2017-Jan-13 04:33N 47°13' W 003°30'1110.8
2017-Jan-13 03:33N 47°18' W 003°44'5210.5
2017-Jan-12 22:33N 47°45' W 004°51'1010.3
2017-Jan-12 21:34N 47°50' W 005°04'1110.7
2017-Jan-12 20:33N 47°57' W 005°16'1111.3
2017-Jan-12 19:33N 48°06' W 005°26'1211.5
2017-Jan-12 18:33N 48°16' W 005°35'  

Dump ship's entire track history